createdAt,value
2019-05-13T00:00:49.996Z,99.99
2019-05-13T00:01:49.991Z,99.99
2019-05-13T00:02:49.984Z,99.99
2019-05-13T00:03:49.986Z,99.99
2019-05-13T00:04:50.018Z,99.99
2019-05-13T00:05:49.975Z,99.99
2019-05-13T00:06:54.162Z,99.99
2019-05-13T00:07:49.964Z,99.99
2019-05-13T00:08:49.963Z,99.99
2019-05-13T00:09:49.979Z,99.99
2019-05-13T00:10:49.956Z,99.99
2019-05-13T00:11:49.939Z,99.99
2019-05-13T00:12:49.936Z,99.99
2019-05-13T00:13:49.943Z,99.99
2019-05-13T00:14:49.956Z,99.99
2019-05-13T00:15:49.923Z,99.99
2019-05-13T00:16:49.919Z,99.99
2019-05-13T00:17:49.916Z,99.99
2019-05-13T00:18:49.909Z,99.99
2019-05-13T00:19:49.937Z,99.99
2019-05-13T00:20:49.896Z,99.99
2019-05-13T00:21:49.892Z,99.99
2019-05-13T00:22:49.889Z,99.99
2019-05-13T00:23:49.885Z,99.99
2019-05-13T00:24:49.910Z,99.99
2019-05-13T00:25:49.876Z,99.99
2019-05-13T00:26:49.873Z,99.99
2019-05-13T00:27:49.868Z,99.99
2019-05-13T00:28:49.867Z,99.99
2019-05-13T00:29:49.889Z,99.99
2019-05-13T00:30:49.853Z,99.99
2019-05-13T00:31:49.844Z,99.99
2019-05-13T00:32:49.840Z,99.99
2019-05-13T00:33:49.837Z,99.99
2019-05-13T00:34:49.861Z,99.99
2019-05-13T00:35:49.832Z,99.99
2019-05-13T00:36:49.820Z,99.99
2019-05-13T00:37:49.819Z,99.99
2019-05-13T00:38:49.841Z,99.99
2019-05-13T00:39:49.838Z,99.99
2019-05-13T00:40:49.811Z,99.99
2019-05-13T00:41:49.798Z,99.99
2019-05-13T00:42:49.794Z,99.99
2019-05-13T00:43:49.799Z,99.99
2019-05-13T00:44:49.825Z,99.99
2019-05-13T00:45:49.776Z,99.99
2019-05-13T00:46:49.775Z,99.99
2019-05-13T00:47:49.768Z,99.99
2019-05-13T00:48:49.768Z,99.99
2019-05-13T00:49:49.781Z,99.99
2019-05-13T00:50:49.752Z,99.99
2019-05-13T00:51:49.750Z,99.99
2019-05-13T00:52:49.746Z,99.99
2019-05-13T00:53:49.741Z,99.99
2019-05-13T00:54:49.766Z,99.99
2019-05-13T00:55:49.735Z,99.99
2019-05-13T00:56:49.722Z,99.99
2019-05-13T00:57:49.721Z,99.99
2019-05-13T00:58:49.716Z,99.99
2019-05-13T00:59:49.740Z,99.99
2019-05-13T01:00:49.708Z,99.99
2019-05-13T01:01:49.701Z,99.99
2019-05-13T01:02:49.696Z,99.99
2019-05-13T01:03:49.693Z,99.99
2019-05-13T01:04:49.720Z,99.99
2019-05-13T01:05:49.677Z,99.99
2019-05-13T01:06:49.672Z,99.99
2019-05-13T01:07:49.670Z,99.99
2019-05-13T01:08:49.665Z,99.99
2019-05-13T01:09:49.689Z,99.99
2019-05-13T01:10:49.658Z,99.99
2019-05-13T01:11:49.653Z,99.99
2019-05-13T01:12:49.643Z,99.99
2019-05-13T01:13:49.641Z,99.99
2019-05-13T01:14:49.636Z,99.99
2019-05-13T01:15:49.666Z,99.99
2019-05-13T01:16:49.629Z,99.99
2019-05-13T01:17:49.627Z,99.99
2019-05-13T01:18:49.613Z,99.99
2019-05-13T01:19:49.608Z,99.99
2019-05-13T01:20:49.646Z,99.99
2019-05-13T01:21:49.605Z,99.99
2019-05-13T01:22:49.597Z,99.99
2019-05-13T01:23:49.593Z,99.99
2019-05-13T01:24:49.590Z,99.99
2019-05-13T01:25:49.606Z,99.99
2019-05-13T01:26:49.577Z,99.99
2019-05-13T01:27:49.569Z,99.99
2019-05-13T01:28:49.563Z,99.99
2019-05-13T01:29:49.561Z,99.99
2019-05-13T01:30:49.579Z,99.99
2019-05-13T01:31:49.550Z,99.99
2019-05-13T01:32:49.544Z,99.99
2019-05-13T01:33:49.537Z,99.99
2019-05-13T01:34:49.529Z,99.99
2019-05-13T01:35:49.558Z,99.99
2019-05-13T01:36:49.529Z,99.99
2019-05-13T01:37:49.521Z,99.99
2019-05-13T01:38:49.513Z,99.99
2019-05-13T01:39:49.510Z,99.99
2019-05-13T01:40:49.533Z,99.99
2019-05-13T01:41:49.502Z,99.99
2019-05-13T01:42:49.499Z,99.99
2019-05-13T01:43:49.490Z,99.99
2019-05-13T01:44:49.485Z,99.99
2019-05-13T01:45:49.509Z,99.99
2019-05-13T01:46:49.475Z,99.99
2019-05-13T01:47:49.465Z,99.99
2019-05-13T01:48:49.465Z,99.99
2019-05-13T01:49:49.456Z,99.99
2019-05-13T01:50:49.477Z,99.99
2019-05-13T01:51:49.444Z,99.99
2019-05-13T01:52:49.451Z,99.99
2019-05-13T01:53:49.438Z,99.99
2019-05-13T01:54:49.429Z,99.99
2019-05-13T01:55:49.456Z,99.99
2019-05-13T01:56:49.426Z,99.99
2019-05-13T01:57:49.417Z,99.99
2019-05-13T01:58:49.590Z,99.99
2019-05-13T01:59:49.405Z,99.99
2019-05-13T02:00:51.651Z,99.99
2019-05-13T02:01:49.394Z,99.99
2019-05-13T02:02:49.396Z,99.01
2019-05-13T02:03:49.387Z,99.99
2019-05-13T02:04:49.384Z,99.99
2019-05-13T02:05:49.400Z,99.99
2019-05-13T02:06:49.375Z,99.99
2019-05-13T02:07:59.697Z,99.99
2019-05-13T02:08:49.369Z,99.99
2019-05-13T02:09:49.362Z,99.99
2019-05-13T02:10:49.375Z,99.99
2019-05-13T02:11:49.348Z,99.99
2019-05-13T02:12:49.338Z,99.99
2019-05-13T02:13:49.340Z,96.64
2019-05-13T02:14:49.329Z,99.20
2019-05-13T02:15:49.354Z,99.10
2019-05-13T02:16:49.321Z,99.20
2019-05-13T02:17:49.308Z,97.68
2019-05-13T02:18:49.309Z,91.90
2019-05-13T02:19:49.301Z,93.51
2019-05-13T02:20:49.334Z,93.23
2019-05-13T02:21:49.328Z,88.59
2019-05-13T02:22:49.295Z,91.62
2019-05-13T02:23:49.282Z,91.05
2019-05-13T02:24:49.277Z,84.89
2019-05-13T02:25:49.272Z,72.96
2019-05-13T02:26:49.295Z,71.72
2019-05-13T02:27:49.261Z,76.55
2019-05-13T02:28:49.257Z,64.90
2019-05-13T02:29:49.253Z,63.95
2019-05-13T02:30:49.249Z,71.88
2019-05-13T02:31:55.232Z,75.76
2019-05-13T02:32:52.895Z,74.24
2019-05-13T02:33:49.229Z,79.83
2019-05-13T02:34:49.234Z,78.64
2019-05-13T02:35:52.691Z,81.86
2019-05-13T02:36:52.507Z,68.98
2019-05-13T02:37:49.212Z,73.80
2019-05-13T02:38:49.198Z,78.64
2019-05-13T02:39:49.201Z,83.66
2019-05-13T02:40:52.402Z,81.10
2019-05-13T02:41:52.018Z,87.64
2019-05-13T02:42:52.162Z,90.20
2019-05-13T02:43:52.382Z,79.96
2019-05-13T02:44:52.312Z,79.96
2019-05-13T02:45:52.764Z,85.74
2019-05-13T02:46:52.290Z,86.50
2019-05-13T02:47:51.983Z,84.47
2019-05-13T02:48:52.537Z,83.05
2019-05-13T02:49:49.139Z,81.25
2019-05-13T02:50:52.563Z,72.34
2019-05-13T02:51:49.186Z,78.31
2019-05-13T02:52:49.129Z,71.78
2019-05-13T02:53:52.197Z,66.19
2019-05-13T02:54:52.569Z,69.03
2019-05-13T02:55:51.616Z,69.70
2019-05-13T02:56:52.458Z,76.04
2019-05-13T02:57:49.099Z,76.42
2019-05-13T02:58:52.422Z,76.51
2019-05-13T02:59:51.896Z,72.44
2019-05-13T03:00:53.113Z,74.05
2019-05-13T03:01:52.999Z,75.19
2019-05-13T03:02:52.241Z,75.19
2019-05-13T03:03:52.550Z,75.19
2019-05-13T03:04:52.082Z,74.71
2019-05-13T03:05:52.333Z,73.58
2019-05-13T03:06:51.983Z,67.90
2019-05-13T03:07:52.701Z,66.28
2019-05-13T03:08:53.217Z,71.97
2019-05-13T03:09:52.483Z,73.68
2019-05-13T03:10:52.722Z,68.18
2019-05-13T03:11:53.217Z,71.97
2019-05-13T03:12:49.015Z,66.47
2019-05-13T03:13:49.012Z,71.50
2019-05-13T03:14:49.004Z,72.82
2019-05-13T03:15:51.524Z,73.49
2019-05-13T03:16:51.768Z,72.63
2019-05-13T03:17:52.353Z,72.06
2019-05-13T03:18:52.125Z,65.15
2019-05-13T03:19:52.730Z,69.13
2019-05-13T03:20:52.630Z,71.88
2019-05-13T03:21:52.078Z,72.73
2019-05-13T03:22:52.274Z,72.73
2019-05-13T03:23:52.247Z,72.92
2019-05-13T03:24:52.087Z,73.68
2019-05-13T03:25:48.937Z,64.20
2019-05-13T03:26:48.943Z,57.20
2019-05-13T03:27:48.960Z,63.82
2019-05-13T03:28:52.169Z,69.60
2019-05-13T03:29:48.911Z,58.33
2019-05-13T03:30:48.918Z,61.18
2019-05-13T03:31:48.904Z,66.95
2019-05-13T03:32:55.278Z,69.89
2019-05-13T03:33:48.892Z,70.23
2019-05-13T03:34:53.905Z,69.79
2019-05-13T03:35:55.016Z,70.26
2019-05-13T03:36:48.875Z,71.50
2019-05-13T03:37:48.902Z,71.97
2019-05-13T03:39:01.503Z,66.57
2019-05-13T03:39:48.859Z,69.89
2019-05-13T03:40:48.853Z,67.71
2019-05-13T03:41:48.847Z,66.86
2019-05-13T03:42:48.872Z,71.02
2019-05-13T03:43:48.842Z,69.41
2019-05-13T03:44:52.275Z,69.41
2019-05-13T03:45:48.832Z,75.95
2019-05-13T03:46:48.823Z,68.75
2019-05-13T03:47:48.840Z,68.46
2019-05-13T03:48:48.812Z,66.28
2019-05-13T03:49:48.805Z,67.14
2019-05-13T03:50:48.793Z,64.49
2019-05-13T03:51:48.788Z,63.45
2019-05-13T03:52:52.248Z,67.14
2019-05-13T03:53:48.778Z,64.68
2019-05-13T03:54:51.903Z,70.74
2019-05-13T03:55:48.767Z,78.31
2019-05-13T03:56:48.759Z,78.13
2019-05-13T03:57:48.822Z,69.70
2019-05-13T03:58:48.760Z,79.55
2019-05-13T03:59:48.747Z,82.14
2019-05-13T04:00:51.692Z,84.89
2019-05-13T04:01:52.189Z,77.31
2019-05-13T04:02:51.895Z,89.53
2019-05-13T04:03:48.718Z,94.27
2019-05-13T04:04:48.717Z,91.57
2019-05-13T04:05:52.334Z,97.16
2019-05-13T04:06:48.703Z,99.99
2019-05-13T04:07:52.018Z,98.25
2019-05-13T04:08:48.690Z,99.99
2019-05-13T04:09:48.682Z,99.99
2019-05-13T04:10:48.681Z,99.99
2019-05-13T04:11:48.677Z,91.33
2019-05-13T04:12:48.670Z,99.99
2019-05-13T04:13:48.692Z,99.99
2019-05-13T04:14:48.677Z,99.99
2019-05-13T04:15:48.656Z,99.99
2019-05-13T04:16:48.647Z,99.99
2019-05-13T04:17:48.647Z,99.99
2019-05-13T04:18:48.668Z,99.99
2019-05-13T04:19:48.638Z,99.99
2019-05-13T04:20:48.631Z,99.99
2019-05-13T04:21:48.625Z,99.99
2019-05-13T04:22:48.630Z,99.99
2019-05-13T04:23:48.641Z,99.99
2019-05-13T04:24:48.614Z,99.99
2019-05-13T04:25:48.612Z,99.99
2019-05-13T04:26:48.606Z,99.99
2019-05-13T04:27:52.213Z,99.99
2019-05-13T04:28:48.619Z,99.99
2019-05-13T04:29:48.585Z,99.99
2019-05-13T04:30:48.584Z,99.87
2019-05-13T04:31:48.575Z,99.99
2019-05-13T04:32:48.570Z,99.99
2019-05-13T04:33:48.594Z,99.99
2019-05-13T04:34:48.569Z,99.99
2019-05-13T04:35:48.565Z,99.99
2019-05-13T04:36:51.870Z,99.99
2019-05-13T04:37:48.555Z,99.99
2019-05-13T04:38:48.577Z,99.99
2019-05-13T04:39:52.614Z,99.99
2019-05-13T04:40:48.547Z,99.99
2019-05-13T04:41:48.536Z,99.99
2019-05-13T04:42:48.540Z,99.99
2019-05-13T04:43:48.552Z,99.99
2019-05-13T04:44:48.533Z,99.99
2019-05-13T04:45:48.526Z,99.99
2019-05-13T04:46:48.511Z,99.99
2019-05-13T04:47:48.515Z,99.99
2019-05-13T04:48:48.542Z,99.99
2019-05-13T04:49:48.507Z,99.99
2019-05-13T04:50:48.495Z,99.99
2019-05-13T04:51:48.492Z,99.99
2019-05-13T04:52:48.491Z,99.99
2019-05-13T04:53:53.348Z,99.99
2019-05-13T04:54:48.482Z,99.99
2019-05-13T04:55:48.475Z,99.99
2019-05-13T04:56:48.474Z,99.99
2019-05-13T04:57:48.471Z,99.99
2019-05-13T04:58:48.498Z,99.99
2019-05-13T04:59:48.464Z,99.99
2019-05-13T05:00:49.941Z,99.99
2019-05-13T05:01:55.242Z,99.99
2019-05-13T05:02:51.245Z,99.99
2019-05-13T05:03:48.484Z,99.99
2019-05-13T05:04:48.451Z,99.99
2019-05-13T05:05:48.449Z,99.99
2019-05-13T05:06:48.447Z,99.99
2019-05-13T05:07:48.442Z,99.99
2019-05-13T05:08:48.486Z,99.99
2019-05-13T05:10:13.030Z,99.99
2019-05-13T05:10:53.028Z,99.99
2019-05-13T05:11:48.434Z,99.99
2019-05-13T05:12:48.435Z,99.99
2019-05-13T05:13:48.432Z,99.99
2019-05-13T05:14:48.448Z,99.99
2019-05-13T05:15:48.429Z,99.99
2019-05-13T05:16:48.417Z,99.99
2019-05-13T05:17:48.411Z,99.99
2019-05-13T05:18:48.424Z,99.99
2019-05-13T05:19:48.437Z,99.99
2019-05-13T05:20:48.414Z,99.99
2019-05-13T05:21:51.816Z,99.99
2019-05-13T05:22:48.402Z,99.99
2019-05-13T05:23:48.404Z,99.99
2019-05-13T05:24:48.431Z,99.99
2019-05-13T05:25:48.398Z,99.99
2019-05-13T05:26:48.393Z,99.99
2019-05-13T05:27:48.389Z,99.99
2019-05-13T05:28:48.518Z,99.99
2019-05-13T05:29:48.416Z,99.99
2019-05-13T05:30:48.392Z,99.99
2019-05-13T05:31:48.384Z,99.99
2019-05-13T05:32:48.382Z,99.99
2019-05-13T05:33:48.377Z,99.99
2019-05-13T05:34:48.404Z,99.99
2019-05-13T05:35:48.375Z,99.99
2019-05-13T05:36:48.377Z,99.99
2019-05-13T05:37:48.374Z,99.99
2019-05-13T05:38:48.365Z,99.99
2019-05-13T05:39:48.396Z,99.99
2019-05-13T05:40:48.377Z,99.99
2019-05-13T05:41:48.363Z,99.99
2019-05-13T05:42:48.360Z,99.99
2019-05-13T05:43:48.358Z,99.99
2019-05-13T05:44:48.390Z,99.99
2019-05-13T05:45:48.356Z,99.99
2019-05-13T05:46:48.354Z,99.99
2019-05-13T05:47:48.349Z,99.99
2019-05-13T05:48:50.731Z,99.99
2019-05-13T05:49:48.395Z,99.99
2019-05-13T05:50:48.353Z,99.99
2019-05-13T05:51:48.347Z,99.99
2019-05-13T05:52:48.341Z,99.99
2019-05-13T05:53:48.342Z,99.99
2019-05-13T05:54:48.378Z,99.99
2019-05-13T05:55:48.338Z,99.99
2019-05-13T05:56:48.346Z,99.99
2019-05-13T05:57:48.376Z,99.99
2019-05-13T05:58:48.331Z,99.99
2019-05-13T05:59:48.367Z,99.99
2019-05-13T06:00:48.329Z,99.99
2019-05-13T06:01:48.331Z,99.99
2019-05-13T06:02:48.327Z,99.99
2019-05-13T06:03:48.333Z,99.80
2019-05-13T06:04:48.365Z,98.71
2019-05-13T06:05:48.324Z,98.42
2019-05-13T06:06:48.321Z,98.42
2019-05-13T06:07:48.321Z,98.13
2019-05-13T06:08:48.318Z,99.09
2019-05-13T06:09:48.344Z,97.47
2019-05-13T06:10:52.911Z,97.28
2019-05-13T06:11:48.310Z,95.36
2019-05-13T06:12:48.323Z,95.65
2019-05-13T06:13:51.561Z,97.47
2019-05-13T06:14:48.341Z,98.08
2019-05-13T06:15:48.312Z,97.94
2019-05-13T06:16:48.314Z,98.28
2019-05-13T06:17:48.309Z,96.70
2019-05-13T06:18:48.305Z,95.75
2019-05-13T06:19:48.309Z,94.36
2019-05-13T06:20:48.339Z,91.64
2019-05-13T06:21:48.308Z,91.98
2019-05-13T06:22:48.306Z,94.41
2019-05-13T06:23:48.306Z,98.61
2019-05-13T06:24:48.305Z,99.99
2019-05-13T06:25:48.340Z,99.99
2019-05-13T06:26:48.303Z,98.80
2019-05-13T06:27:48.299Z,97.89
2019-05-13T06:28:48.301Z,98.61
2019-05-13T06:29:49.318Z,98.80
2019-05-13T06:30:48.327Z,99.43
2019-05-13T06:31:48.299Z,98.13
2019-05-13T06:32:48.301Z,95.84
2019-05-13T06:33:48.298Z,95.03
2019-05-13T06:34:48.297Z,93.40
2019-05-13T06:35:48.335Z,91.20
2019-05-13T06:36:48.302Z,91.30
2019-05-13T06:37:48.294Z,93.40
2019-05-13T06:38:48.300Z,94.17
2019-05-13T06:39:48.294Z,93.79
2019-05-13T06:41:00.357Z,92.40
2019-05-13T06:41:48.294Z,92.30
2019-05-13T06:42:48.301Z,92.02
2019-05-13T06:43:48.299Z,91.77
2019-05-13T06:44:48.294Z,90.44
2019-05-13T06:45:48.325Z,91.16
2019-05-13T06:46:48.301Z,91.16
2019-05-13T06:47:48.297Z,90.67
2019-05-13T06:48:48.298Z,91.87
2019-05-13T06:49:48.299Z,91.30
2019-05-13T06:50:48.357Z,90.77
2019-05-13T06:51:48.298Z,88.85
2019-05-13T06:52:48.356Z,87.32
2019-05-13T06:53:48.304Z,86.79
2019-05-13T06:54:48.299Z,86.60
2019-05-13T06:55:48.330Z,85.45
2019-05-13T06:56:48.309Z,84.72
2019-05-13T06:57:48.308Z,84.30
2019-05-13T06:58:48.307Z,83.01
2019-05-13T06:59:48.311Z,84.08
2019-05-13T07:00:48.344Z,86.52
2019-05-13T07:01:48.310Z,88.72
2019-05-13T07:02:48.311Z,91.54
2019-05-13T07:03:48.311Z,92.45
2019-05-13T07:04:48.314Z,90.87
2019-05-13T07:05:48.343Z,89.67
2019-05-13T07:06:48.320Z,88.13
2019-05-13T07:07:48.319Z,86.61
2019-05-13T07:08:48.406Z,85.55
2019-05-13T07:09:48.322Z,86.17
2019-05-13T07:10:48.352Z,86.17
2019-05-13T07:11:48.366Z,85.12
2019-05-13T07:12:48.331Z,84.68
2019-05-13T07:13:48.328Z,83.05
2019-05-13T07:14:48.337Z,83.63
2019-05-13T07:15:48.332Z,83.09
2019-05-13T07:16:48.361Z,82.86
2019-05-13T07:17:48.335Z,84.11
2019-05-13T07:18:48.331Z,85.35
2019-05-13T07:19:48.339Z,85.79
2019-05-13T07:20:48.343Z,84.83
2019-05-13T07:21:48.372Z,84.92
2019-05-13T07:22:48.345Z,86.31
2019-05-13T07:23:52.177Z,82.96
2019-05-13T07:24:48.352Z,83.15
2019-05-13T07:25:48.354Z,84.20
2019-05-13T07:26:48.382Z,85.49
2019-05-13T07:27:48.370Z,83.58
2019-05-13T07:28:48.368Z,82.27
2019-05-13T07:29:48.363Z,81.98
2019-05-13T07:30:48.368Z,81.41
2019-05-13T07:31:48.399Z,80.83
2019-05-13T07:32:48.370Z,81.64
2019-05-13T07:33:48.380Z,80.30
2019-05-13T07:34:48.383Z,81.16
2019-05-13T07:35:48.388Z,79.82
2019-05-13T07:36:48.419Z,79.53
2019-05-13T07:37:48.390Z,79.05
2019-05-13T07:38:48.402Z,82.46
2019-05-13T07:39:48.399Z,82.27
2019-05-13T07:40:48.399Z,81.70
2019-05-13T07:41:48.438Z,81.85
2019-05-13T07:42:48.411Z,83.14
2019-05-13T07:43:48.411Z,80.64
2019-05-13T07:44:48.421Z,79.88
2019-05-13T07:45:48.421Z,79.49
2019-05-13T07:46:48.457Z,80.07
2019-05-13T07:47:48.424Z,78.59
2019-05-13T07:48:48.431Z,78.72
2019-05-13T07:49:48.464Z,79.45
2019-05-13T07:50:56.336Z,82.48
2019-05-13T07:51:48.464Z,81.95
2019-05-13T07:52:48.471Z,82.04
2019-05-13T07:53:48.484Z,82.42
2019-05-13T07:54:48.486Z,81.51
2019-05-13T07:55:48.460Z,83.76
2019-05-13T07:56:48.463Z,82.75
2019-05-13T07:57:48.492Z,81.51
2019-05-13T07:58:48.472Z,80.35
2019-05-13T07:59:48.473Z,84.58
2019-05-13T08:00:48.479Z,82.46
2019-05-13T08:01:48.494Z,81.16
2019-05-13T08:02:48.520Z,80.82
2019-05-13T08:03:48.492Z,81.59
2019-05-13T08:04:49.509Z,79.38
2019-05-13T08:05:48.504Z,76.15
2019-05-13T08:06:48.513Z,75.96
2019-05-13T08:07:48.544Z,76.06
2019-05-13T08:08:48.526Z,74.90
2019-05-13T08:09:48.529Z,74.81
2019-05-13T08:10:48.539Z,75.63
2019-05-13T08:12:04.358Z,76.12
2019-05-13T08:12:48.606Z,76.46
2019-05-13T08:13:48.556Z,77.13
2019-05-13T08:14:48.556Z,77.86
2019-05-13T08:15:48.591Z,78.05
2019-05-13T08:16:48.622Z,79.16
2019-05-13T08:17:48.608Z,80.27
2019-05-13T08:18:48.581Z,83.25
2019-05-13T08:19:48.597Z,83.59
2019-05-13T08:20:48.592Z,82.78
2019-05-13T08:21:48.607Z,83.40
2019-05-13T08:22:48.637Z,85.85
2019-05-13T08:23:48.607Z,86.43
2019-05-13T08:24:51.932Z,91.20
2019-05-13T08:25:48.622Z,91.68
2019-05-13T08:26:50.716Z,93.26
2019-05-13T08:27:48.654Z,93.07
2019-05-13T08:29:00.340Z,92.50
2019-05-13T08:29:48.641Z,92.97
2019-05-13T08:30:48.630Z,91.35
2019-05-13T08:31:48.645Z,87.77
2019-05-13T08:32:48.752Z,89.59
2019-05-13T08:33:48.647Z,89.77
2019-05-13T08:34:54.309Z,86.66
2019-05-13T08:35:54.192Z,85.47
2019-05-13T08:36:48.662Z,87.24
2019-05-13T08:37:48.678Z,91.16
2019-05-13T08:38:51.697Z,92.97
2019-05-13T08:39:48.658Z,93.07
2019-05-13T08:40:48.659Z,91.16
2019-05-13T08:41:48.662Z,89.63
2019-05-13T08:42:48.666Z,91.35
2019-05-13T08:43:48.715Z,91.69
2019-05-13T08:44:48.680Z,90.68
2019-05-13T08:45:51.173Z,89.58
2019-05-13T08:46:48.678Z,88.58
2019-05-13T08:47:51.113Z,90.82
2019-05-13T08:48:48.707Z,89.72
2019-05-13T08:49:48.687Z,87.51
2019-05-13T08:50:48.691Z,85.75
2019-05-13T08:51:48.691Z,84.98
2019-05-13T08:52:51.102Z,86.13
2019-05-13T08:53:48.728Z,85.80
2019-05-13T08:54:48.702Z,85.66
2019-05-13T08:55:48.707Z,87.76
2019-05-13T08:56:48.706Z,87.95
2019-05-13T08:57:51.183Z,88.87
2019-05-13T08:58:48.747Z,89.44
2019-05-13T08:59:48.719Z,88.09
2019-05-13T09:00:48.719Z,87.76
2019-05-13T09:01:48.723Z,86.04
2019-05-13T09:02:48.723Z,85.80
2019-05-13T09:03:48.758Z,86.41
2019-05-13T09:04:48.735Z,86.27
2019-05-13T09:05:48.735Z,86.16
2019-05-13T09:06:48.741Z,79.59
2019-05-13T09:07:48.747Z,78.00
2019-05-13T09:08:48.778Z,77.94
2019-05-13T09:09:51.132Z,76.46
2019-05-13T09:10:48.759Z,78.67
2019-05-13T09:11:48.767Z,79.53
2019-05-13T09:12:48.767Z,79.24
2019-05-13T09:13:48.800Z,78.61
2019-05-13T09:14:48.779Z,75.96
2019-05-13T09:15:51.457Z,74.27
2019-05-13T09:16:48.792Z,71.93
2019-05-13T09:17:48.798Z,74.62
2019-05-13T09:18:51.805Z,73.24
2019-05-13T09:19:48.818Z,70.96
2019-05-13T09:20:48.824Z,75.04
2019-05-13T09:21:48.862Z,77.50
2019-05-13T09:22:51.360Z,79.41
2019-05-13T09:23:51.395Z,79.89
2019-05-13T09:24:48.849Z,81.62
2019-05-13T09:25:48.860Z,80.47
2019-05-13T09:26:48.906Z,78.44
2019-05-13T09:27:51.232Z,72.33
2019-05-13T09:28:48.884Z,69.84
2019-05-13T09:29:51.845Z,74.06
2019-05-13T09:30:48.944Z,73.62
2019-05-13T09:31:48.943Z,73.81
2019-05-13T09:32:51.274Z,75.67
2019-05-13T09:33:48.932Z,74.90
2019-05-13T09:34:48.962Z,73.98
2019-05-13T09:35:50.983Z,71.48
2019-05-13T09:36:48.957Z,73.44
2019-05-13T09:37:51.432Z,70.10
2019-05-13T09:38:48.975Z,67.00
2019-05-13T09:39:51.466Z,68.08
2019-05-13T09:40:48.990Z,75.37
2019-05-13T09:41:51.804Z,77.76
2019-05-13T09:42:52.104Z,74.51
2019-05-13T09:43:51.227Z,74.83
2019-05-13T09:44:49.065Z,74.43
2019-05-13T09:45:49.045Z,73.21
2019-05-13T09:46:51.485Z,69.75
2019-05-13T09:47:49.062Z,72.73
2019-05-13T09:48:51.465Z,69.18
2019-05-13T09:49:50.355Z,68.57
2019-05-13T09:50:51.495Z,69.53
2019-05-13T09:51:49.112Z,68.30
2019-05-13T09:52:52.154Z,68.66
2019-05-13T09:53:49.127Z,70.42
2019-05-13T09:54:49.171Z,70.07
2019-05-13T09:55:49.150Z,68.82
2019-05-13T09:56:51.676Z,70.93
2019-05-13T09:57:49.167Z,70.78
2019-05-13T09:58:51.254Z,68.21
2019-05-13T09:59:49.240Z,67.38
2019-05-13T10:00:52.164Z,65.81
2019-05-13T10:01:51.657Z,68.91
2019-05-13T10:02:51.398Z,70.93
2019-05-13T10:03:54.856Z,72.14
2019-05-13T10:04:51.235Z,70.67
2019-05-13T10:05:51.895Z,71.53
2019-05-13T10:06:49.263Z,73.55
2019-05-13T10:07:49.276Z,69.62
2019-05-13T10:08:49.287Z,71.98
2019-05-13T10:09:51.799Z,73.56
2019-05-13T10:10:49.336Z,68.63
2019-05-13T10:11:51.719Z,72.72
2019-05-13T10:13:07.454Z,68.90
2019-05-13T10:13:51.427Z,74.30
2019-05-13T10:14:49.387Z,75.33
2019-05-13T10:15:49.411Z,71.95
2019-05-13T10:16:51.433Z,69.81
2019-05-13T10:17:49.396Z,66.93
2019-05-13T10:18:49.410Z,65.81
2019-05-13T10:19:51.856Z,64.95
2019-05-13T10:20:49.462Z,63.64
2019-05-13T10:21:49.444Z,64.73
2019-05-13T10:22:51.993Z,64.50
2019-05-13T10:23:49.471Z,69.31
2019-05-13T10:24:51.440Z,67.99
2019-05-13T10:25:52.045Z,62.77
2019-05-13T10:26:51.484Z,64.50
2019-05-13T10:27:49.540Z,63.51
2019-05-13T10:28:49.536Z,60.02
2019-05-13T10:29:51.776Z,61.36
2019-05-13T10:30:52.574Z,59.36
2019-05-13T10:31:51.331Z,61.15
2019-05-13T10:32:52.516Z,61.79
2019-05-13T10:33:51.336Z,64.37
2019-05-13T10:34:52.073Z,68.68
2019-05-13T10:35:52.431Z,67.28
2019-05-13T10:36:51.382Z,65.20
2019-05-13T10:37:49.701Z,64.53
2019-05-13T10:38:51.894Z,68.66
2019-05-13T10:39:51.728Z,70.25
2019-05-13T10:40:51.996Z,70.44
2019-05-13T10:41:52.074Z,69.77
2019-05-13T10:42:52.213Z,68.46
2019-05-13T10:43:52.013Z,71.69
2019-05-13T10:44:52.321Z,71.75
2019-05-13T10:45:52.290Z,73.86
2019-05-13T10:46:52.184Z,72.94
2019-05-13T10:47:51.924Z,69.77
2019-05-13T10:48:52.427Z,69.04
2019-05-13T10:49:52.336Z,69.33
2019-05-13T10:50:52.032Z,67.02
2019-05-13T10:51:52.427Z,66.64
2019-05-13T10:52:52.199Z,67.06
2019-05-13T10:53:52.775Z,68.50
2019-05-13T10:54:52.269Z,68.02
2019-05-13T10:55:52.173Z,69.23
2019-05-13T10:56:53.220Z,69.23
2019-05-13T10:57:51.399Z,69.36
2019-05-13T10:58:53.111Z,69.59
2019-05-13T10:59:51.960Z,66.67
2019-05-13T11:00:51.757Z,67.03
2019-05-13T11:01:49.936Z,68.08
2019-05-13T11:02:49.916Z,66.49
2019-05-13T11:03:52.395Z,70.62
2019-05-13T11:04:51.936Z,71.73
2019-05-13T11:05:52.278Z,72.14
2019-05-13T11:06:52.503Z,73.13
2019-05-13T11:07:51.727Z,71.34
2019-05-13T11:08:52.798Z,70.29
2019-05-13T11:09:52.761Z,71.57
2019-05-13T11:10:52.799Z,70.42
2019-05-13T11:11:52.811Z,71.89
2019-05-13T11:12:52.055Z,69.78
2019-05-13T11:13:56.360Z,68.79
2019-05-13T11:14:51.518Z,68.57
2019-05-13T11:15:57.378Z,65.53
2019-05-13T11:16:52.417Z,67.68
2019-05-13T11:17:51.901Z,65.88
2019-05-13T11:18:51.907Z,63.92
2019-05-13T11:19:50.127Z,64.73
2019-05-13T11:20:50.142Z,61.11
2019-05-13T11:21:50.902Z,61.87
2019-05-13T11:22:52.188Z,65.40
2019-05-13T11:23:51.785Z,67.64
2019-05-13T11:24:51.832Z,66.52
2019-05-13T11:25:52.272Z,67.41
2019-05-13T11:26:52.342Z,67.98
2019-05-13T11:27:52.413Z,70.62
2019-05-13T11:28:52.164Z,71.16
2019-05-13T11:29:52.346Z,72.47
2019-05-13T11:30:52.073Z,73.19
2019-05-13T11:31:52.477Z,77.00
2019-05-13T11:32:51.665Z,76.18
2019-05-13T11:33:52.050Z,73.34
2019-05-13T11:34:53.105Z,70.25
2019-05-13T11:35:52.331Z,67.41
2019-05-13T11:36:53.238Z,61.49
2019-05-13T11:37:53.136Z,56.60
2019-05-13T11:38:53.152Z,60.35
2019-05-13T11:39:51.659Z,62.62
2019-05-13T11:40:52.328Z,64.66
2019-05-13T11:41:50.402Z,62.17
2019-05-13T11:42:52.645Z,60.00
2019-05-13T11:44:11.010Z,59.80
2019-05-13T11:44:52.760Z,56.61
2019-05-13T11:45:50.870Z,60.96
2019-05-13T11:46:53.038Z,62.81
2019-05-13T11:47:52.205Z,62.42
2019-05-13T11:48:51.900Z,63.32
2019-05-13T11:49:52.227Z,60.82
2019-05-13T11:50:53.748Z,60.79
2019-05-13T11:51:51.953Z,64.28
2019-05-13T11:52:52.416Z,64.56
2019-05-13T11:53:50.548Z,62.93
2019-05-13T11:54:53.940Z,61.60
2019-05-13T11:55:52.271Z,60.06
2019-05-13T11:57:00.964Z,60.45
2019-05-13T11:57:53.088Z,63.35
2019-05-13T11:58:53.404Z,65.11
2019-05-13T11:59:52.705Z,66.45
2019-05-13T12:00:53.150Z,64.43
2019-05-13T12:01:53.887Z,64.76
2019-05-13T12:02:54.465Z,65.08
2019-05-13T12:03:53.036Z,64.25
2019-05-13T12:04:53.513Z,65.30
2019-05-13T12:05:53.779Z,64.34
2019-05-13T12:06:54.587Z,64.40
2019-05-13T12:07:53.464Z,65.04
2019-05-13T12:08:54.128Z,64.02
2019-05-13T12:09:51.852Z,65.74
2019-05-13T12:10:51.883Z,68.20
2019-05-13T12:11:50.729Z,66.89
2019-05-13T12:12:50.728Z,65.42
2019-05-13T12:13:52.890Z,65.01
2019-05-13T12:15:20.271Z,61.57
2019-05-13T12:15:53.950Z,58.40
2019-05-13T12:16:50.727Z,57.45
2019-05-13T12:17:52.969Z,57.67
2019-05-13T12:18:52.589Z,59.77
2019-05-13T12:19:54.005Z,61.50
2019-05-13T12:20:53.968Z,62.07
2019-05-13T12:21:54.074Z,58.44
2019-05-13T12:22:52.043Z,58.65
2019-05-13T12:23:52.760Z,59.80
2019-05-13T12:24:51.562Z,59.65
2019-05-13T12:25:53.031Z,60.83
2019-05-13T12:26:53.152Z,61.88
2019-05-13T12:27:51.950Z,60.35
2019-05-13T12:28:53.651Z,60.54
2019-05-13T12:29:52.771Z,61.91
2019-05-13T12:30:53.057Z,64.47
2019-05-13T12:31:52.707Z,62.36
2019-05-13T12:32:51.905Z,61.88
2019-05-13T12:33:52.336Z,60.48
2019-05-13T12:34:52.715Z,60.73
2019-05-13T12:35:53.001Z,59.87
2019-05-13T12:36:50.935Z,62.93
2019-05-13T12:37:53.312Z,61.76
2019-05-13T12:38:53.707Z,62.04
2019-05-13T12:39:53.198Z,61.94
2019-05-13T12:40:53.021Z,62.93
2019-05-13T12:41:53.494Z,64.37
2019-05-13T12:42:53.844Z,62.87
2019-05-13T12:43:53.863Z,61.50
2019-05-13T12:45:03.821Z,60.38
2019-05-13T12:45:53.289Z,62.68
2019-05-13T12:46:54.070Z,60.76
2019-05-13T12:47:53.070Z,61.27
2019-05-13T12:48:51.060Z,60.50
2019-05-13T12:49:51.063Z,59.86
2019-05-13T12:50:53.813Z,58.48
2019-05-13T12:51:51.673Z,59.12
2019-05-13T12:52:51.577Z,57.68